Time;durP1;ratioP1;P1;durP2;ratioP2;P2;SDS_P1;SDS_P2;PMS_P1;PMS_P2;Temp;Humidity;BMP_temperature;BMP_pressure;BME280_temperature;BME280_humidity;BME280_pressure;Samples;Min_cycle;Max_cycle;Signal;HPM_P1;HPM_P2
2022/05/13 00:03:00;;;;;;;1.50;0.60;;;;;;;19.33;39.63;97908.84;10512415;28;20089;-75
2022/05/13 00:08:21;;;;;;;3.60;0.80;;;;;;;19.27;39.91;97902.22;10496729;28;20500;-74
2022/05/13 00:13:41;;;;;;;2.75;0.50;;;;;;;19.17;39.95;97902.59;10509530;28;20489;-76
2022/05/13 00:19:04;;;;;;;3.05;0.60;;;;;;;19.01;40.17;97901.97;10511538;28;20508;-75
2022/05/13 00:24:25;;;;;;;1.93;0.60;;;;;;;19.01;40.48;97902.72;10494080;28;20424;-75
2022/05/13 00:29:46;;;;;;;2.90;0.80;;;;;;;19.07;40.23;97900.13;10522963;28;20067;-75
2022/05/13 00:35:07;;;;;;;1.83;0.60;;;;;;;19.01;40.44;97902.72;10510900;28;20473;-76
2022/05/13 00:40:28;;;;;;;2.25;0.52;;;;;;;18.91;40.60;97908.00;10510507;28;20043;-74
2022/05/13 00:45:49;;;;;;;3.38;0.70;;;;;;;18.93;40.82;97896.78;10532087;28;20040;-75
2022/05/13 00:51:10;;;;;;;2.55;0.70;;;;;;;18.85;40.57;97885.16;10525705;28;20047;-76
2022/05/13 00:56:31;;;;;;;1.77;0.50;;;;;;;18.78;41.03;97892.69;10497050;28;20040;-75
2022/05/13 01:01:52;;;;;;;3.22;0.57;;;;;;;18.78;41.16;97889.13;10496180;28;20405;-75
2022/05/13 01:07:15;;;;;;;4.30;0.90;;;;;;;18.82;41.31;97883.63;10510228;28;20393;-74
2022/05/13 01:12:38;;;;;;;7.43;0.60;;;;;;;18.73;41.26;97879.78;10497025;28;20040;-74
2022/05/13 01:18:07;;;;;;;1.98;0.57;;;;;;;18.74;41.30;97875.56;10493838;28;20044;-76
2022/05/13 01:23:41;;;;;;;2.88;0.82;;;;;;;18.82;41.15;97880.81;10502131;28;20420;-74
2022/05/13 01:29:02;;;;;;;2.05;0.70;;;;;;;18.88;41.27;97878.19;10507332;28;20040;-75
2022/05/13 01:34:23;;;;;;;2.58;0.70;;;;;;;18.88;41.31;97875.34;10508281;28;20040;-74
2022/05/13 01:39:44;;;;;;;4.25;0.55;;;;;;;18.76;41.60;97883.41;10507773;28;20063;-74
2022/05/13 01:45:06;;;;;;;1.92;0.55;;;;;;;18.70;41.71;97880.34;10521273;28;20072;-74
2022/05/13 01:50:27;;;;;;;2.30;0.88;;;;;;;18.58;41.89;97884.13;10523701;28;20047;-74
2022/05/13 01:55:48;;;;;;;5.40;0.80;;;;;;;18.65;42.04;97881.56;10493868;28;20149;-74
2022/05/13 02:01:08;;;;;;;3.83;0.80;;;;;;;18.67;42.19;97881.63;10492454;28;20496;-74
2022/05/13 02:06:30;;;;;;;7.00;0.73;;;;;;;18.74;42.02;97886.88;10507491;28;20083;-74
2022/05/13 02:11:51;;;;;;;3.00;0.75;;;;;;;18.76;42.03;97906.03;10522844;28;20039;-74
2022/05/13 02:17:12;;;;;;;2.90;0.70;;;;;;;18.69;42.22;97907.88;10507530;28;20051;-74
2022/05/13 02:22:32;;;;;;;3.42;0.77;;;;;;;18.75;42.15;97898.91;10522600;28;20532;-74
2022/05/13 02:27:53;;;;;;;3.20;0.60;;;;;;;18.77;42.03;97902.53;10507422;28;20040;-74
2022/05/13 02:33:13;;;;;;;4.70;1.08;;;;;;;18.69;42.57;97890.91;10494674;28;20477;-75
2022/05/13 02:38:34;;;;;;;4.13;0.60;;;;;;;18.64;42.75;97885.75;10491273;28;20036;-74
2022/05/13 02:43:55;;;;;;;5.15;0.80;;;;;;;18.61;42.75;97884.91;10491296;28;20051;-74
2022/05/13 02:49:16;;;;;;;2.80;0.80;;;;;;;18.64;42.72;97871.59;10521945;28;20063;-74
2022/05/13 02:54:36;;;;;;;3.42;0.50;;;;;;;18.68;42.78;97869.69;10491698;28;20044;-74
2022/05/13 02:59:59;;;;;;;1.90;0.68;;;;;;;18.72;42.49;97855.72;10500145;28;20072;-74
2022/05/13 03:05:19;;;;;;;4.18;0.80;;;;;;;18.73;42.47;97862.09;10508081;28;20075;-74
2022/05/13 03:10:40;;;;;;;3.42;0.90;;;;;;;18.69;42.42;97876.78;10510230;28;20040;-74
2022/05/13 03:16:10;;;;;;;2.67;0.80;;;;;;;18.62;42.57;97863.03;10510304;28;20056;-74
2022/05/13 03:21:30;;;;;;;4.15;0.88;;;;;;;18.49;42.62;97868.22;10509220;28;20047;-74
2022/05/13 03:26:51;;;;;;;3.85;0.80;;;;;;;18.47;42.56;97853.31;10490699;28;20083;-74
2022/05/13 03:32:12;;;;;;;3.28;0.70;;;;;;;18.43;42.64;97856.72;10518465;28;20098;-74
2022/05/13 03:37:32;;;;;;;4.95;0.70;;;;;;;18.42;42.75;97858.06;10503730;28;20040;-75
2022/05/13 03:42:53;;;;;;;3.80;0.98;;;;;;;18.43;42.84;97848.22;10490578;28;20093;-74
2022/05/13 03:48:14;;;;;;;4.78;0.82;;;;;;;18.36;42.83;97843.72;10498844;28;20504;-74
2022/05/13 03:53:35;;;;;;;3.58;0.82;;;;;;;18.43;42.81;97836.16;10501366;28;20086;-74
2022/05/13 03:58:55;;;;;;;2.33;0.70;;;;;;;18.50;42.62;97832.94;10498278;28;20036;-75
2022/05/13 04:04:21;;;;;;;4.03;0.80;;;;;;;18.50;42.41;97821.63;10501594;28;20400;-75
2022/05/13 04:09:41;;;;;;;5.25;0.90;;;;;;;18.37;42.93;97833.13;10499273;28;20401;-74
2022/05/13 04:20:42;;;;;;;2.75;0.93;;;;;;;18.35;42.72;97835.88;10516089;28;20036;-74
2022/05/13 04:26:02;;;;;;;4.43;1.02;;;;;;;18.45;42.94;97839.09;10508762;28;20440;-74
2022/05/13 04:31:25;;;;;;;4.30;1.00;;;;;;;18.45;43.11;97830.63;10496410;28;20040;-75
2022/05/13 04:36:46;;;;;;;4.10;1.40;;;;;;;18.51;43.29;97837.22;10512473;28;20032;-75
2022/05/13 04:53:32;;;;;;;5.28;1.35;;;;;;;18.65;44.00;97839.88;10521679;28;20036;-75
2022/05/13 04:58:53;;;;;;;6.47;1.20;;;;;;;18.82;44.27;97844.03;10484167;28;20040;-75
2022/05/13 05:04:14;;;;;;;6.32;1.15;;;;;;;18.95;44.76;97837.44;10497829;28;20033;-74
2022/05/13 05:09:35;;;;;;;5.45;1.33;;;;;;;19.16;44.72;97836.06;10495568;28;20032;-74
2022/05/13 05:14:58;;;;;;;5.40;1.38;;;;;;;19.37;45.20;97841.03;10518231;28;20121;-75
2022/05/13 05:20:20;;;;;;;3.37;1.13;;;;;;;19.56;45.34;97844.53;10496483;28;20051;-74
2022/05/13 05:25:42;;;;;;;4.07;1.23;;;;;;;19.84;44.91;97844.75;10497658;28;20036;-74
2022/05/13 05:31:03;;;;;;;4.40;1.25;;;;;;;20.62;45.07;97848.63;10511685;28;20040;-74
2022/05/13 05:36:24;;;;;;;5.03;1.45;;;;;;;21.76;44.21;97856.72;10499061;28;20040;-78
2022/05/13 05:41:44;;;;;;;4.97;1.35;;;;;;;22.98;43.26;97848.91;10484538;28;20067;-76
2022/05/13 05:47:05;;;;;;;5.45;1.70;;;;;;;24.71;40.60;97854.72;10498151;28;20429;-75
2022/05/13 05:52:27;;;;;;;7.80;1.10;;;;;;;26.72;40.07;97860.97;10512721;28;20063;-75
2022/05/13 05:58:11;;;;;;;7.15;1.20;;;;;;;28.02;34.82;97861.41;10497327;28;20105;-75
2022/05/13 06:03:32;;;;;;;6.90;1.10;;;;;;;27.17;33.41;97861.94;10527269;28;20040;-76
2022/05/13 06:08:57;;;;;;;2.88;0.95;;;;;;;26.12;34.74;97879.13;10497545;28;20044;-76
2022/05/13 06:14:18;;;;;;;3.15;1.00;;;;;;;26.86;35.17;97866.78;10512412;28;20048;-76
2022/05/13 06:19:38;;;;;;;5.60;0.90;;;;;;;27.76;33.78;97879.28;10497069;28;20504;-77
2022/05/13 06:25:01;;;;;;;3.88;0.98;;;;;;;27.96;32.52;97895.81;10524882;28;20036;-79
2022/05/13 06:30:24;;;;;;;3.45;1.08;;;;;;;30.92;30.81;97887.25;10497412;28;20097;-77
2022/05/13 06:35:45;;;;;;;2.63;0.82;;;;;;;35.60;26.56;97887.91;10511061;28;20055;-81
2022/05/13 06:41:06;;;;;;;3.38;0.80;;;;;;;36.65;22.88;97883.78;10496521;28;20405;-80
2022/05/13 06:46:26;;;;;;;3.85;0.70;;;;;;;38.42;20.32;97896.78;10496502;28;20040;-82
2022/05/13 06:51:47;;;;;;;2.20;0.50;;;;;;;39.73;18.29;97892.41;10510625;28;20063;-81
2022/05/13 06:57:10;;;;;;;5.78;0.50;;;;;;;43.63;15.34;97884.09;10496633;28;20040;-80
2022/05/13 07:02:31;;;;;;;4.55;0.80;;;;;;;47.27;11.55;97878.75;10482517;28;20037;-80
2022/05/13 07:07:52;;;;;;;4.18;0.50;;;;;;;49.06;9.50;97866.16;10442115;28;20037;-79
2022/05/13 07:13:14;;;;;;;2.70;0.70;;;;;;;49.98;9.17;97881.72;10455114;28;20398;-78
2022/05/13 07:18:39;;;;;;;3.38;0.52;;;;;;;51.21;7.38;97881.34;10507663;28;20036;-79
2022/05/13 07:24:01;;;;;;;3.63;0.50;;;;;;;51.49;7.66;97877.22;10497191;28;20100;-77
2022/05/13 07:29:24;;;;;;;2.17;0.52;;;;;;;51.80;7.28;97869.66;10529523;28;20040;-77
2022/05/13 07:34:46;;;;;;;4.60;0.40;;;;;;;52.92;6.40;97863.59;10518004;28;20043;-77
2022/05/13 07:45:48;;;;;;;1.90;0.50;;;;;;;55.80;4.66;97853.63;10522802;28;20477;-78
2022/05/13 07:51:10;;;;;;;1.63;0.40;;;;;;;56.29;5.05;97848.59;10486236;28;20048;-79
2022/05/13 07:56:31;;;;;;;4.60;0.60;;;;;;;57.33;3.91;97848.00;10530902;28;20086;-78
2022/05/13 08:01:52;;;;;;;2.75;0.60;;;;;;;57.36;3.59;97849.16;10502954;28;20044;-79
2022/05/13 08:07:14;;;;;;;3.53;0.60;;;;;;;58.47;2.85;97861.41;10488930;28;20048;-78
2022/05/13 08:12:35;;;;;;;1.50;0.60;;;;;;;59.26;2.96;97864.75;10502230;28;20044;-76
2022/05/13 08:17:57;;;;;;;3.88;1.00;;;;;;;59.65;2.19;97865.69;10502221;28;20040;-78
2022/05/13 08:23:18;;;;;;;2.13;0.80;;;;;;;57.68;3.24;97868.41;10515985;28;20052;-78
2022/05/13 08:28:43;;;;;;;2.03;0.93;;;;;;;56.91;2.67;97859.94;10503355;28;20474;-78
2022/05/13 08:34:05;;;;;;;2.42;1.00;;;;;;;56.57;3.13;97850.50;10529048;28;20097;-83
2022/05/13 08:39:26;;;;;;;1.67;1.15;;;;;;;57.39;3.65;97858.56;10515595;28;20390;-81
2022/05/13 08:45:08;;;;;;;2.00;0.95;;;;;;;57.11;3.17;97862.75;10518066;28;20060;-79
2022/05/13 08:50:37;;;;;;;52.08;3.63;;;;;;;57.01;3.04;97856.38;10501295;28;20086;-80
2022/05/13 08:56:08;;;;;;;1.90;0.70;;;;;;;54.26;4.12;97848.56;10514218;28;20154;-82
2022/05/13 09:01:33;;;;;;;6.30;1.02;;;;;;;55.71;3.52;97838.25;10499546;28;20048;-81
2022/05/13 09:07:00;;;;;;;2.50;0.80;;;;;;;52.81;3.90;97837.16;10500454;28;20446;-80
2022/05/13 09:12:54;;;;;;;2.08;0.50;;;;;;;50.54;5.10;97831.28;10499694;28;20173;-80
2022/05/13 09:18:22;;;;;;;1.42;0.60;;;;;;;55.15;3.54;97819.94;10526216;28;20044;-82
2022/05/13 09:23:43;;;;;;;2.63;1.00;;;;;;;57.50;2.52;97825.69;10510752;28;20088;-79
2022/05/13 09:29:07;;;;;;;4.13;0.73;;;;;;;54.71;2.66;97804.78;10497309;28;20048;-80
2022/05/13 09:35:00;;;;;;;1.58;0.90;;;;;;;54.86;3.89;97804.56;10526688;28;20036;-81
2022/05/13 09:40:24;;;;;;;1.65;0.82;;;;;;;54.27;3.36;97802.19;10413028;28;20054;-79
2022/05/13 09:45:45;;;;;;;3.80;1.40;;;;;;;57.19;2.26;97796.50;10397882;28;20064;-80
2022/05/13 09:51:21;;;;;;;4.75;1.13;;;;;;;53.61;3.52;97778.06;10398913;28;20047;-78
2022/05/13 09:56:46;;;;;;;2.58;1.00;;;;;;;54.37;3.27;97779.44;10411534;28;20467;-79
2022/05/13 10:02:29;;;;;;;2.70;0.80;;;;;;;52.96;2.67;97773.06;10412163;28;20091;-81
2022/05/13 10:07:53;;;;;;;5.38;0.93;;;;;;;53.45;3.50;97751.38;10431830;28;20067;-80
2022/05/13 10:19:18;;;;;;;2.15;1.95;;;;;;;56.52;1.90;97741.72;10462119;28;20139;-79
2022/05/13 10:25:05;;;;;;;2.55;1.02;;;;;;;52.18;3.09;97736.41;10457180;28;20074;-79
2022/05/13 10:30:38;;;;;;;2.63;0.38;;;;;;;45.10;6.23;97740.25;10497353;28;20179;-79
2022/05/13 10:36:17;;;;;;;3.90;0.60;;;;;;;48.54;5.44;97735.19;10512226;28;20080;-79
2022/05/13 10:41:58;;;;;;;2.72;0.30;;;;;;;46.84;5.88;97753.75;10510082;28;20056;-80
2022/05/13 10:47:40;;;;;;;1.65;0.47;;;;;;;43.78;6.59;97751.63;10510727;28;20048;-80
2022/05/13 10:53:20;;;;;;;3.03;0.30;;;;;;;42.95;7.82;97758.44;10472396;28;20143;-79
2022/05/13 10:59:00;;;;;;;1.33;0.30;;;;;;;43.99;6.64;97749.41;10488184;28;20072;-79
2022/05/13 11:05:02;;;;;;;1.85;0.30;;;;;;;41.32;8.08;97749.75;10493608;28;20044;-79
2022/05/13 11:10:28;;;;;;;3.10;0.40;;;;;;;39.89;9.30;97742.66;10519394;28;20044;-79
2022/05/13 11:16:02;;;;;;;5.03;0.30;;;;;;;38.98;9.83;97729.53;10503934;28;20051;-79
2022/05/13 11:21:47;;;;;;;4.70;0.40;;;;;;;37.64;10.73;97728.06;10530472;28;20105;-79
2022/05/13 11:27:23;;;;;;;4.10;0.25;;;;;;;37.44;10.89;97732.50;10524336;28;20056;-79
2022/05/13 11:32:44;;;;;;;3.65;0.50;;;;;;;36.92;10.92;97727.25;10531299;28;20043;-79
2022/05/13 11:38:16;;;;;;;2.90;0.47;;;;;;;36.54;12.20;97723.56;10514547;28;20085;-78
2022/05/13 11:43:42;;;;;;;4.07;0.40;;;;;;;35.65;12.47;97720.84;10516280;28;20075;-78
2022/05/13 11:49:27;;;;;;;1.67;0.45;;;;;;;35.44;12.38;97724.41;10544193;28;20715;-76
2022/05/13 11:54:49;;;;;;;2.67;0.45;;;;;;;35.11;12.60;97716.00;10510968;28;20044;-76
2022/05/13 12:00:28;;;;;;;;;;;;;;;34.26;13.28;97701.81;10498130;28;20082;-77
2022/05/13 12:06:00;;;;;;;2.63;0.40;;;;;;;34.30;13.03;97695.88;10527953;28;19920;-77
2022/05/13 12:11:43;;;;;;;2.58;0.30;;;;;;;33.92;12.69;97688.97;10527483;28;20048;-79
2022/05/13 12:17:25;;;;;;;2.15;0.40;;;;;;;33.56;12.58;97696.38;10512570;28;20035;-75
2022/05/13 12:22:59;;;;;;;2.95;0.28;;;;;;;33.04;13.22;97701.94;10524752;28;20044;-79
2022/05/13 12:28:20;;;;;;;4.63;0.30;;;;;;;32.56;13.42;97689.94;10515622;28;20044;-80
2022/05/13 12:47:31;;;;;;;1.20;0.30;;;;;;;32.10;13.77;97677.84;10456068;28;20071;-84
2022/05/13 12:52:52;;;;;;;2.17;0.32;;;;;;;31.84;14.01;97679.03;10418433;28;20052;-82
2022/05/13 12:58:12;;;;;;;5.00;0.40;;;;;;;31.66;13.55;97681.53;10416437;28;20044;-76
2022/05/13 13:03:41;;;;;;;2.50;0.53;;;;;;;31.67;13.67;97685.84;10445333;28;20042;-76
2022/05/13 13:09:03;;;;;;;4.47;0.35;;;;;;;31.50;13.73;97674.56;10442447;28;20098;-76
2022/05/13 13:14:44;;;;;;;1.70;0.28;;;;;;;31.32;13.95;97669.81;10459183;28;20044;-76
2022/05/13 13:20:06;;;;;;;3.20;0.40;;;;;;;31.22;13.84;97684.38;10440420;28;20414;-76
2022/05/13 13:25:38;;;;;;;3.30;0.30;;;;;;;31.19;14.28;97676.50;10443412;28;20045;-76
2022/05/13 13:31:20;;;;;;;3.25;0.40;;;;;;;31.17;14.21;97685.16;10444178;28;20048;-75
2022/05/13 13:36:41;;;;;;;6.50;0.40;;;;;;;30.95;14.24;97691.97;10455600;28;20057;-77
2022/05/13 13:42:23;;;;;;;0.98;0.20;;;;;;;30.68;14.35;97683.69;10432789;28;20052;-80
2022/05/13 13:47:46;;;;;;;5.78;0.30;;;;;;;30.43;15.19;97691.91;10498760;28;20127;-77
2022/05/13 13:53:07;;;;;;;8.35;0.70;;;;;;;28.44;16.58;97690.59;10511778;28;20059;-74
2022/05/13 13:58:52;;;;;;;3.13;0.30;;;;;;;26.79;18.66;97696.38;10495049;28;20046;-75
2022/05/13 14:04:14;;;;;;;10.90;0.40;;;;;;;26.61;19.10;97688.44;10512001;28;20097;-76
2022/05/13 14:09:42;;;;;;;2.17;0.40;;;;;;;26.68;19.59;97707.09;10493690;28;20040;-78
2022/05/13 14:15:05;;;;;;;4.00;0.30;;;;;;;26.63;19.15;97707.78;10511368;28;20051;-77
2022/05/13 14:20:32;;;;;;;4.63;0.40;;;;;;;26.76;19.44;97709.25;10498824;28;20048;-77
2022/05/13 14:25:57;;;;;;;2.05;0.38;;;;;;;26.97;19.43;97707.16;10483274;28;20048;-77
2022/05/13 14:31:31;;;;;;;1.50;0.20;;;;;;;27.30;19.00;97716.53;10458980;28;21712;-77
2022/05/13 14:37:00;;;;;;;3.38;0.60;;;;;;;27.28;18.66;97728.72;10510533;28;20050;-79
2022/05/13 14:42:31;;;;;;;1.70;0.30;;;;;;;27.24;18.82;97731.59;10483669;28;20052;-80
2022/05/13 14:48:30;;;;;;;2.92;0.40;;;;;;;27.38;18.83;97728.72;10511148;28;20447;-79
2022/05/13 14:54:04;;;;;;;1.67;0.38;;;;;;;27.56;18.38;97733.75;10423092;28;20486;-80
2022/05/13 14:59:41;;;;;;;4.22;0.40;;;;;;;27.51;18.35;97746.66;10510358;28;20056;-80
2022/05/13 15:05:17;;;;;;;2.90;0.40;;;;;;;27.39;19.00;97735.88;10496790;28;20527;-81
2022/05/13 15:10:45;;;;;;;2.28;0.30;;;;;;;27.24;18.82;97725.84;10498470;28;20119;-77
2022/05/13 15:16:07;;;;;;;2.95;0.40;;;;;;;27.29;18.61;97730.16;10496247;28;20551;-77
2022/05/13 15:21:29;;;;;;;2.00;0.35;;;;;;;27.06;18.60;97748.75;10467505;28;20052;-77
2022/05/13 15:26:50;;;;;;;4.80;0.40;;;;;;;26.76;19.00;97749.34;10454355;28;20076;-80
2022/05/13 15:32:13;;;;;;;3.47;0.35;;;;;;;26.89;19.29;97739.34;10441416;28;20037;-79
2022/05/13 15:37:35;;;;;;;2.97;0.63;;;;;;;26.88;19.34;97752.25;10454587;28;20041;-82
2022/05/13 15:42:57;;;;;;;2.75;0.40;;;;;;;26.87;19.45;97759.41;10440746;28;20061;-77
2022/05/13 15:48:18;;;;;;;2.25;0.25;;;;;;;26.80;19.46;97761.50;10461701;28;20131;-81
2022/05/13 15:53:39;;;;;;;1.73;0.20;;;;;;;26.79;19.08;97767.97;10445467;28;20070;-78
2022/05/13 15:59:00;;;;;;;5.03;0.30;;;;;;;26.59;18.60;97762.88;10461530;28;20063;-79
2022/05/13 16:04:31;;;;;;;4.70;0.45;;;;;;;26.54;18.67;97770.00;10451052;28;20052;-80
2022/05/13 16:09:52;;;;;;;1.73;0.30;;;;;;;26.34;18.89;97776.28;10461275;28;20044;-78
2022/05/13 16:15:15;;;;;;;6.93;0.70;;;;;;;26.25;20.70;97803.44;10474931;28;20099;-81
2022/05/13 16:20:35;;;;;;;9.05;0.73;;;;;;;26.06;20.56;97816.19;10461115;28;20036;-78
2022/05/13 16:25:57;;;;;;;8.05;0.70;;;;;;;25.88;21.93;97813.91;10460260;28;20478;-80
2022/05/13 16:31:18;;;;;;;10.77;0.70;;;;;;;25.45;22.64;97836.34;10460605;28;20044;-79
2022/05/13 16:42:20;;;;;;;10.13;0.70;;;;;;;25.02;23.32;97843.72;10479428;28;20053;-79
2022/05/13 16:47:41;;;;;;;6.10;0.45;;;;;;;24.81;23.84;97852.00;10459430;28;20049;-77
2022/05/13 16:53:03;;;;;;;4.38;0.50;;;;;;;24.72;23.90;97867.59;10459159;28;20062;-76
2022/05/13 16:58:32;;;;;;;10.32;0.60;;;;;;;24.42;24.11;97876.44;10460943;28;20040;-76
2022/05/13 17:03:52;;;;;;;7.07;0.50;;;;;;;24.10;24.19;97884.44;10458830;28;20044;-82
2022/05/13 17:20:32;;;;;;;7.18;0.60;;;;;;;23.57;24.94;97912.00;10477307;28;20044;-76
2022/05/13 17:25:54;;;;;;;4.47;0.60;;;;;;;23.38;25.20;97902.38;10472356;28;20044;-77
2022/05/13 17:31:15;;;;;;;4.57;0.50;;;;;;;23.19;25.37;97911.97;10457963;28;20040;-75
2022/05/13 17:36:35;;;;;;;3.28;0.75;;;;;;;22.92;25.43;97916.38;10485440;28;20045;-76
2022/05/13 17:41:56;;;;;;;5.15;0.50;;;;;;;22.77;25.90;97918.13;10484676;28;20482;-77
2022/05/13 17:47:17;;;;;;;8.00;1.30;;;;;;;22.54;26.05;97937.56;10457382;28;20037;-75
2022/05/13 17:52:43;;;;;;;6.93;1.30;;;;;;;22.40;26.43;97937.22;10459702;28;20532;-77
2022/05/13 17:58:06;;;;;;;8.77;1.38;;;;;;;22.22;26.73;97953.84;10456773;28;20052;-76
2022/05/13 18:03:28;;;;;;;;;;;;;;;22.04;27.71;97953.34;10485178;28;20536;-76
2022/05/13 18:08:49;;;;;;;4.22;0.93;;;;;;;21.84;27.25;97976.28;10498215;28;19920;-74
2022/05/13 18:14:09;;;;;;;3.97;0.50;;;;;;;21.62;27.91;97970.72;10456493;28;20041;-77
2022/05/13 18:19:30;;;;;;;9.07;1.08;;;;;;;21.45;28.56;97971.66;10442368;28;20436;-76
2022/05/13 18:24:51;;;;;;;3.35;0.70;;;;;;;21.24;28.41;97973.16;10469978;28;20037;-76
2022/05/13 18:30:12;;;;;;;3.60;0.70;;;;;;;20.95;29.10;97988.63;10469718;28;20080;-76
2022/05/13 18:35:34;;;;;;;6.35;0.65;;;;;;;20.88;29.26;97998.31;10469893;28;20056;-75
2022/05/13 18:46:36;;;;;;;5.68;0.60;;;;;;;20.68;29.19;98018.97;10471464;28;20064;-74
2022/05/13 18:51:57;;;;;;;2.38;0.60;;;;;;;20.62;29.60;98032.97;10455667;28;20098;-74
2022/05/13 18:57:17;;;;;;;3.70;0.60;;;;;;;20.34;29.57;98046.16;10455214;28;20437;-74
2022/05/13 19:02:38;;;;;;;3.97;0.52;;;;;;;20.21;30.09;98042.91;10455122;28;20037;-74
2022/05/13 19:08:00;;;;;;;4.55;0.65;;;;;;;20.01;29.99;98054.28;10455079;28;20047;-74
2022/05/13 19:13:21;;;;;;;8.70;1.10;;;;;;;19.89;30.28;98067.28;10468557;28;20051;-74
2022/05/13 19:18:42;;;;;;;4.07;0.70;;;;;;;19.78;30.36;98079.59;10507448;28;20097;-75
2022/05/13 19:24:03;;;;;;;3.17;0.55;;;;;;;19.77;30.50;98087.38;10510165;28;20074;-75
2022/05/13 19:29:24;;;;;;;1.83;0.60;;;;;;;19.51;31.30;98081.44;10497698;28;20063;-79
2022/05/13 19:34:48;;;;;;;7.00;2.30;;;;;;;19.47;30.91;98095.44;10529209;28;20535;-74
2022/05/13 19:40:09;;;;;;;6.60;0.82;;;;;;;19.49;31.28;98098.34;10528728;28;20067;-74
2022/05/13 19:45:30;;;;;;;3.05;0.63;;;;;;;19.50;31.21;98110.41;10494757;28;20502;-74
2022/05/13 19:50:51;;;;;;;3.28;0.57;;;;;;;19.38;31.33;98117.03;10470150;28;20036;-74
2022/05/13 19:56:12;;;;;;;6.72;0.55;;;;;;;19.31;31.54;98117.47;10470318;28;20072;-76
2022/05/13 20:01:33;;;;;;;2.63;0.47;;;;;;;19.30;31.85;98118.81;10484236;28;20040;-74
2022/05/13 20:12:33;;;;;;;5.38;1.02;;;;;;;19.10;31.77;98139.28;10498354;28;20047;-74
2022/05/13 20:17:53;;;;;;;3.45;0.63;;;;;;;19.00;31.84;98144.53;10469930;28;20059;-74
2022/05/13 20:23:16;;;;;;;3.50;0.40;;;;;;;18.93;31.82;98142.84;10469982;28;20043;-74
2022/05/13 20:28:36;;;;;;;6.88;0.70;;;;;;;18.86;32.21;98138.31;10470296;28;20111;-77
2022/05/13 20:33:57;;;;;;;8.18;0.70;;;;;;;18.80;32.44;98143.69;10488202;28;20041;-75
2022/05/13 20:39:19;;;;;;;11.52;0.65;;;;;;;18.70;32.34;98146.09;10501744;28;20068;-74
2022/05/13 20:44:40;;;;;;;3.63;1.00;;;;;;;18.65;32.42;98152.97;10496851;28;20040;-74
2022/05/13 20:50:00;;;;;;;4.28;0.60;;;;;;;18.53;32.43;98156.72;10529551;28;20040;-74
2022/05/13 20:55:21;;;;;;;2.80;0.60;;;;;;;18.42;32.76;98166.09;10514805;28;20051;-74
2022/05/13 21:00:42;;;;;;;3.13;0.70;;;;;;;18.35;32.98;98163.69;10500783;28;20040;-74
2022/05/13 21:06:04;;;;;;;3.88;0.50;;;;;;;18.24;33.04;98173.81;10500335;28;20413;-74
2022/05/13 21:11:24;;;;;;;3.80;0.52;;;;;;;18.14;33.19;98178.97;10500414;28;20044;-74
2022/05/13 21:16:45;;;;;;;3.70;0.50;;;;;;;18.09;33.40;98183.72;10513898;28;20062;-74
2022/05/13 21:22:05;;;;;;;6.18;0.60;;;;;;;18.02;33.61;98188.38;10513833;28;20044;-73
2022/05/13 21:27:26;;;;;;;7.53;0.75;;;;;;;17.93;33.94;98183.72;10513342;28;20374;-74
2022/05/13 21:38:25;;;;;;;6.97;0.60;;;;;;;17.70;34.46;98184.78;10518643;28;20109;-74
2022/05/13 21:43:46;;;;;;;4.50;0.57;;;;;;;17.54;34.90;98192.47;10498411;28;20075;-74
2022/05/13 21:49:07;;;;;;;6.38;0.77;;;;;;;17.41;35.00;98191.16;10526705;28;20087;-73
2022/05/13 21:54:27;;;;;;;4.38;0.70;;;;;;;17.31;35.27;98198.41;10498513;28;20036;-74
2022/05/13 21:59:48;;;;;;;3.70;0.80;;;;;;;17.23;35.55;98201.56;10498388;28;20089;-73
2022/05/13 22:05:09;;;;;;;3.97;0.70;;;;;;;17.12;35.48;98210.91;10497970;28;20051;-74
2022/05/13 22:10:30;;;;;;;4.55;1.70;;;;;;;17.07;35.82;98203.59;10512616;28;20033;-74
2022/05/13 22:15:51;;;;;;;5.82;0.70;;;;;;;17.01;36.02;98211.75;10497823;28;20535;-73
2022/05/13 22:21:12;;;;;;;3.97;0.45;;;;;;;16.83;36.18;98220.75;10525312;28;20082;-74
2022/05/13 22:26:34;;;;;;;3.65;0.50;;;;;;;16.70;36.52;98220.78;10497624;28;20446;-73
2022/05/13 22:31:55;;;;;;;2.37;0.77;;;;;;;16.65;36.52;98219.81;10526124;28;20044;-74
2022/05/13 22:37:16;;;;;;;3.65;0.50;;;;;;;16.65;36.66;98219.81;10525082;28;20302;-76
2022/05/13 22:42:37;;;;;;;2.45;0.40;;;;;;;16.58;36.76;98209.56;10510764;28;20056;-75
2022/05/13 22:47:57;;;;;;;4.03;0.47;;;;;;;16.57;36.71;98214.47;10510845;28;20071;-74
2022/05/13 22:53:18;;;;;;;3.78;0.60;;;;;;;16.51;37.03;98217.00;10511283;28;20067;-75
2022/05/13 22:58:39;;;;;;;4.50;0.82;;;;;;;16.43;36.91;98207.41;10510760;28;20504;-74
2022/05/13 23:04:00;;;;;;;5.07;0.50;;;;;;;16.37;37.04;98215.50;10510677;28;20121;-74
2022/05/13 23:15:04;;;;;;;5.22;0.50;;;;;;;16.18;37.38;98202.56;10526053;28;20098;-75
2022/05/13 23:20:24;;;;;;;4.75;0.50;;;;;;;16.08;37.49;98210.47;10524154;28;20047;-75
2022/05/13 23:25:45;;;;;;;3.42;0.57;;;;;;;16.05;37.78;98217.34;10510091;28;20074;-75
2022/05/13 23:31:05;;;;;;;3.00;0.47;;;;;;;15.96;38.22;98207.75;10492452;28;20040;-76
2022/05/13 23:36:27;;;;;;;2.08;0.45;;;;;;;15.93;38.19;98217.44;10492247;28;20063;-76
2022/05/13 23:41:48;;;;;;;4.65;0.70;;;;;;;15.91;38.41;98209.59;10507827;28;20068;-75
2022/05/13 23:47:08;;;;;;;1.48;0.50;;;;;;;15.88;38.64;98204.47;10495660;28;20063;-76
2022/05/13 23:58:09;;;;;;;3.35;0.60;;;;;;;15.86;38.87;98198.75;10512003;28;20382;-75
